createdAt,value
2018-08-19T00:00:59.603Z,69.11
2018-08-19T00:03:28.494Z,68.84
2018-08-19T00:05:57.418Z,68.86
2018-08-19T00:08:26.273Z,68.39
2018-08-19T00:11:03.407Z,68.63
2018-08-19T00:13:32.365Z,68.59
2018-08-19T00:16:01.252Z,68.96
2018-08-19T00:18:30.127Z,69.00
2018-08-19T00:20:59.090Z,69.41
2018-08-19T00:23:50.021Z,69.41
2018-08-19T00:26:18.893Z,70.07
2018-08-19T00:28:47.749Z,70.24
2018-08-19T00:31:16.638Z,70.13
2018-08-19T00:33:45.505Z,70.39
2018-08-19T00:36:32.602Z,70.23
2018-08-19T00:39:01.514Z,69.88
2018-08-19T00:41:30.401Z,70.23
2018-08-19T00:43:59.276Z,69.88
2018-08-19T00:46:32.770Z,70.01
2018-08-19T00:49:02.145Z,68.21
2018-08-19T00:51:30.994Z,69.30
2018-08-19T00:53:59.834Z,69.66
2018-08-19T00:56:28.714Z,69.43
2018-08-19T00:58:57.549Z,69.55
2018-08-19T01:01:36.153Z,69.79
2018-08-19T01:04:09.083Z,69.67
2018-08-19T01:06:53.660Z,69.70
2018-08-19T01:09:27.035Z,69.96
2018-08-19T01:11:55.955Z,69.87
2018-08-19T01:14:24.875Z,69.98
2018-08-19T01:16:53.712Z,69.01
2018-08-19T01:19:22.576Z,69.77
2018-08-19T01:21:52.739Z,70.13
2018-08-19T01:24:21.656Z,70.28
2018-08-19T01:26:50.492Z,70.57
2018-08-19T01:29:44.203Z,70.24
2018-08-19T01:32:13.588Z,70.24
2018-08-19T01:34:45.408Z,70.26
2018-08-19T01:37:15.032Z,70.26
2018-08-19T01:39:43.903Z,70.39
2018-08-19T01:42:12.765Z,70.63
2018-08-19T01:44:43.126Z,70.73
2018-08-19T01:47:11.985Z,70.89
2018-08-19T01:49:40.865Z,71.26
2018-08-19T01:52:09.735Z,70.87
2018-08-19T01:54:38.598Z,71.07
2018-08-19T01:57:07.465Z,70.64
2018-08-19T01:59:36.356Z,70.42
2018-08-19T02:02:06.433Z,70.60
2018-08-19T02:04:56.737Z,70.51
2018-08-19T02:07:26.125Z,70.96
2018-08-19T02:10:02.584Z,71.01
2018-08-19T02:12:38.365Z,71.24
2018-08-19T02:15:08.327Z,71.42
2018-08-19T02:18:17.872Z,71.27
2018-08-19T02:20:46.826Z,71.32
2018-08-19T02:23:15.615Z,71.61
2018-08-19T02:25:48.192Z,71.59
2018-08-19T02:28:20.438Z,71.56
2018-08-19T02:31:01.745Z,71.74
2018-08-19T02:33:34.843Z,71.80
2018-08-19T02:36:05.444Z,71.92
2018-08-19T02:38:34.723Z,71.80
2018-08-19T02:41:03.603Z,72.03
2018-08-19T02:43:32.456Z,72.18
2018-08-19T02:46:01.386Z,72.31
2018-08-19T02:48:49.891Z,72.15
2018-08-19T02:51:19.894Z,72.09
2018-08-19T02:53:52.334Z,72.11
2018-08-19T02:56:21.345Z,71.78
2018-08-19T02:58:50.217Z,71.83
2018-08-19T03:01:19.079Z,71.85
2018-08-19T03:03:47.946Z,71.94
2018-08-19T03:06:16.822Z,72.02
2018-08-19T03:08:50.641Z,71.92
2018-08-19T03:11:21.158Z,71.83
2018-08-19T03:13:50.008Z,70.69
2018-08-19T03:16:18.899Z,71.64
2018-08-19T03:18:49.872Z,71.71
2018-08-19T03:21:19.500Z,72.00
2018-08-19T03:23:49.577Z,71.86
2018-08-19T03:26:18.513Z,69.92
2018-08-19T03:28:47.448Z,71.15
2018-08-19T03:31:16.295Z,71.18
2018-08-19T03:33:45.188Z,71.11
2018-08-19T03:36:14.021Z,69.68
2018-08-19T03:38:42.888Z,70.67
2018-08-19T03:41:11.727Z,70.93
2018-08-19T03:43:46.234Z,71.34
2018-08-19T03:46:21.264Z,71.17
2018-08-19T03:48:50.589Z,71.29
2018-08-19T03:51:19.452Z,71.13
2018-08-19T03:53:48.282Z,71.08
2018-08-19T03:56:26.093Z,70.77
2018-08-19T03:58:57.807Z,70.87
2018-08-19T04:01:43.306Z,70.89
2018-08-19T04:04:14.228Z,70.46
2018-08-19T04:06:43.388Z,70.79
2018-08-19T04:09:12.247Z,70.89
2018-08-19T04:11:41.105Z,71.39
2018-08-19T04:14:29.622Z,71.33
2018-08-19T04:17:01.957Z,71.60
2018-08-19T04:19:31.121Z,71.82
2018-08-19T04:22:01.759Z,71.90
2018-08-19T04:24:31.265Z,72.15
2018-08-19T04:27:05.328Z,71.94
2018-08-19T04:29:34.451Z,72.38
2018-08-19T04:32:04.113Z,72.43
2018-08-19T04:34:32.983Z,72.60
2018-08-19T04:37:02.132Z,73.18
2018-08-19T04:39:31.023Z,72.83
2018-08-19T04:41:59.927Z,72.57
2018-08-19T04:44:29.268Z,72.31
2018-08-19T04:46:58.156Z,72.40
2018-08-19T04:49:27.049Z,72.39
2018-08-19T04:51:55.955Z,72.35
2018-08-19T04:54:24.840Z,72.38
2018-08-19T04:56:53.713Z,71.96
2018-08-19T04:59:22.587Z,71.37
2018-08-19T05:01:51.532Z,71.26
2018-08-19T05:04:20.404Z,70.94
2018-08-19T05:06:49.260Z,68.80
2018-08-19T05:09:18.144Z,69.69
2018-08-19T05:11:47.040Z,69.41
2018-08-19T05:14:15.846Z,69.37
2018-08-19T05:16:44.763Z,68.92
2018-08-19T05:19:13.636Z,68.91
2018-08-19T05:21:42.487Z,68.64
2018-08-19T05:24:11.364Z,68.46
2018-08-19T05:26:40.234Z,67.95
2018-08-19T05:29:10.642Z,68.02
2018-08-19T05:31:58.595Z,68.19
2018-08-19T05:34:30.696Z,67.69
2018-08-19T05:36:59.730Z,67.84
2018-08-19T05:39:28.828Z,67.57
2018-08-19T05:42:13.886Z,67.65
2018-08-19T05:44:43.375Z,68.03
2018-08-19T05:47:17.797Z,67.61
2018-08-19T05:49:47.620Z,68.02
2018-08-19T05:52:23.512Z,67.66
2018-08-19T05:54:59.666Z,68.17
2018-08-19T05:57:30.190Z,68.18
2018-08-19T05:59:59.876Z,68.06
2018-08-19T06:02:44.766Z,68.52
2018-08-19T06:05:13.609Z,68.83
2018-08-19T06:07:42.727Z,69.28
2018-08-19T06:10:11.384Z,69.26
2018-08-19T06:12:40.266Z,68.93
2018-08-19T06:15:09.160Z,69.35
2018-08-19T06:17:38.051Z,68.20
2018-08-19T06:20:06.954Z,68.39
2018-08-19T06:22:41.876Z,68.06
2018-08-19T06:25:11.720Z,67.54
2018-08-19T06:27:42.863Z,68.23
2018-08-19T06:30:12.078Z,68.60
2018-08-19T06:32:40.920Z,67.45
2018-08-19T06:35:09.821Z,67.68
2018-08-19T06:37:38.696Z,68.50
2018-08-19T06:40:11.681Z,68.68
2018-08-19T06:42:40.568Z,67.37
2018-08-19T06:45:10.370Z,66.50
2018-08-19T06:47:39.257Z,64.62
2018-08-19T06:50:28.304Z,63.78
2018-08-19T06:52:57.247Z,63.53
2018-08-19T06:55:26.241Z,63.28
2018-08-19T06:58:01.206Z,65.32
2018-08-19T07:00:33.044Z,65.92
2018-08-19T07:03:03.388Z,66.04
2018-08-19T07:05:33.017Z,66.38
2018-08-19T07:08:02.101Z,64.71
2018-08-19T07:10:40.825Z,60.29
2018-08-19T07:13:14.433Z,56.62
2018-08-19T07:15:44.324Z,52.78
2018-08-19T07:18:14.578Z,52.20
2018-08-19T07:20:44.155Z,52.96
2018-08-19T07:23:13.381Z,53.46
2018-08-19T07:25:43.383Z,55.05
2018-08-19T07:28:13.620Z,55.48
2018-08-19T07:30:42.890Z,56.21
2018-08-19T07:33:12.425Z,56.13
2018-08-19T07:35:41.371Z,56.65
2018-08-19T07:38:10.414Z,57.41
2018-08-19T07:40:39.351Z,59.09
2018-08-19T07:43:08.261Z,59.55
2018-08-19T07:45:37.110Z,60.15
2018-08-19T07:48:06.108Z,60.42
2018-08-19T07:50:34.948Z,59.79
2018-08-19T07:53:03.805Z,58.78
2018-08-19T07:55:32.663Z,58.29
2018-08-19T07:58:01.544Z,57.64
2018-08-19T08:00:39.726Z,51.99
2018-08-19T08:03:08.838Z,48.52
2018-08-19T08:05:49.676Z,47.10
2018-08-19T08:08:18.562Z,45.79
2018-08-19T08:10:47.436Z,45.54
2018-08-19T08:13:16.311Z,45.71
2018-08-19T08:15:55.819Z,44.10
2018-08-19T08:18:24.747Z,45.34
2018-08-19T08:21:12.953Z,45.09
2018-08-19T08:23:42.063Z,47.20
2018-08-19T08:26:10.889Z,47.99
2018-08-19T08:28:39.790Z,47.50
2018-08-19T08:31:09.528Z,48.19
2018-08-19T08:33:39.889Z,47.14
2018-08-19T08:36:09.868Z,46.51
2018-08-19T08:38:38.806Z,44.75
2018-08-19T08:41:07.683Z,45.63
2018-08-19T08:43:36.528Z,44.28
2018-08-19T08:46:05.391Z,46.06
2018-08-19T08:48:37.082Z,46.95
2018-08-19T08:51:05.943Z,45.55
2018-08-19T08:53:45.141Z,45.15
2018-08-19T08:56:14.535Z,46.91
2018-08-19T08:58:43.397Z,47.42
2018-08-19T09:01:12.267Z,47.30
2018-08-19T09:03:41.119Z,48.93
2018-08-19T09:06:28.030Z,51.33
2018-08-19T09:08:57.190Z,48.44
2018-08-19T09:11:26.061Z,47.78
2018-08-19T09:13:55.076Z,47.78
2018-08-19T09:16:23.910Z,47.35
2018-08-19T09:18:52.935Z,47.77
2018-08-19T09:21:21.832Z,48.87
2018-08-19T09:23:50.724Z,50.25
2018-08-19T09:26:19.519Z,50.49
2018-08-19T09:28:48.435Z,50.72
2018-08-19T09:31:17.302Z,49.90
2018-08-19T09:33:46.186Z,49.31
2018-08-19T09:36:15.106Z,48.58
2018-08-19T09:38:43.922Z,48.35
2018-08-19T09:41:12.888Z,48.11
2018-08-19T09:43:41.682Z,49.13
2018-08-19T09:46:10.545Z,48.16
2018-08-19T09:48:39.375Z,48.91
2018-08-19T09:51:17.310Z,49.54
2018-08-19T09:53:46.136Z,49.63
2018-08-19T09:56:15.021Z,50.07
2018-08-19T09:59:03.271Z,50.22
2018-08-19T10:01:45.710Z,50.95
2018-08-19T10:04:21.243Z,52.33
2018-08-19T10:07:13.651Z,52.14
2018-08-19T10:09:42.784Z,53.22
2018-08-19T10:12:12.730Z,52.74
2018-08-19T10:14:41.574Z,52.63
2018-08-19T10:17:10.469Z,52.64
2018-08-19T10:19:39.317Z,52.01
2018-08-19T10:22:08.164Z,52.09
2018-08-19T10:24:37.019Z,51.54
2018-08-19T10:27:09.130Z,53.55
2018-08-19T10:29:37.995Z,53.21
2018-08-19T10:32:06.912Z,52.98
2018-08-19T10:34:36.791Z,53.70
2018-08-19T10:37:06.324Z,53.04
2018-08-19T10:39:35.175Z,53.83
2018-08-19T10:42:23.812Z,54.79
2018-08-19T10:44:53.143Z,54.77
2018-08-19T10:47:22.132Z,55.04
2018-08-19T10:50:07.511Z,54.96
2018-08-19T10:52:43.204Z,54.62
2018-08-19T10:55:12.867Z,54.35
2018-08-19T10:57:41.749Z,55.26
2018-08-19T11:00:14.736Z,54.74
2018-08-19T11:02:43.629Z,54.52
2018-08-19T11:05:12.507Z,53.88
2018-08-19T11:07:41.606Z,53.54
2018-08-19T11:10:35.979Z,53.54
2018-08-19T11:13:04.914Z,52.21
2018-08-19T11:15:44.971Z,51.44
2018-08-19T11:18:43.064Z,52.75
2018-08-19T11:21:29.376Z,52.68
2018-08-19T11:23:59.190Z,52.55
2018-08-19T11:26:28.065Z,51.93
2018-08-19T11:29:00.136Z,50.68
2018-08-19T11:31:36.513Z,50.28
2018-08-19T11:34:06.617Z,50.12
2018-08-19T11:36:45.334Z,51.54
2018-08-19T11:39:17.738Z,51.10
2018-08-19T11:41:46.672Z,50.91
2018-08-19T11:44:18.359Z,48.98
2018-08-19T11:46:47.201Z,49.61
2018-08-19T11:49:17.603Z,49.12
2018-08-19T11:51:56.893Z,49.37
2018-08-19T11:54:26.526Z,49.28
2018-08-19T11:57:10.206Z,50.17
2018-08-19T11:59:46.006Z,49.81
2018-08-19T12:02:16.588Z,49.05
2018-08-19T12:04:45.982Z,49.81
2018-08-19T12:07:14.952Z,48.31
2018-08-19T12:09:46.646Z,48.00
2018-08-19T12:12:15.428Z,48.61
2018-08-19T12:14:44.289Z,49.64
2018-08-19T12:17:13.430Z,49.49
2018-08-19T12:19:43.561Z,49.02
2018-08-19T12:22:12.410Z,48.64
2018-08-19T12:24:48.525Z,49.61
2018-08-19T12:27:18.834Z,49.74
2018-08-19T12:29:47.841Z,49.46
2018-08-19T12:32:25.139Z,49.97
2018-08-19T12:34:58.126Z,49.47
2018-08-19T12:37:28.091Z,48.86
2018-08-19T12:39:57.573Z,50.28
2018-08-19T12:42:26.996Z,47.83
2018-08-19T12:45:06.095Z,49.02
2018-08-19T12:47:35.511Z,49.16
2018-08-19T12:50:09.240Z,49.71
2018-08-19T12:52:38.173Z,49.08
2018-08-19T12:55:08.795Z,49.23
2018-08-19T12:57:38.619Z,48.91
2018-08-19T13:00:22.174Z,48.78
2018-08-19T13:02:52.056Z,47.70
2018-08-19T13:05:21.362Z,48.00
2018-08-19T13:07:50.371Z,47.90
2018-08-19T13:10:19.465Z,47.85
2018-08-19T13:12:54.991Z,48.08
2018-08-19T13:15:25.070Z,47.90
2018-08-19T13:17:53.953Z,47.71
2018-08-19T13:20:22.795Z,47.38
2018-08-19T13:23:04.933Z,47.32
2018-08-19T13:25:34.123Z,48.01
2018-08-19T13:28:02.968Z,48.06
2018-08-19T13:30:31.869Z,47.56
2018-08-19T13:33:00.721Z,47.30
2018-08-19T13:35:29.586Z,47.12
2018-08-19T13:37:58.439Z,47.53
2018-08-19T13:40:27.313Z,47.26
2018-08-19T13:42:56.171Z,47.43
2018-08-19T13:45:26.550Z,46.99
2018-08-19T13:47:55.335Z,46.13
2018-08-19T13:50:24.176Z,47.36
2018-08-19T13:52:53.056Z,47.55
2018-08-19T13:55:21.929Z,46.01
2018-08-19T13:57:50.938Z,46.76
2018-08-19T14:00:23.895Z,47.10
2018-08-19T14:02:52.804Z,47.36
2018-08-19T14:05:21.652Z,47.40
2018-08-19T14:07:50.518Z,47.62
2018-08-19T14:10:19.390Z,47.05
2018-08-19T14:12:48.247Z,46.87
2018-08-19T14:15:17.127Z,47.25
2018-08-19T14:17:45.975Z,47.63
2018-08-19T14:20:14.838Z,47.33
2018-08-19T14:22:43.670Z,47.73
2018-08-19T14:25:12.834Z,47.29
2018-08-19T14:27:41.703Z,47.09
2018-08-19T14:30:11.676Z,47.25
2018-08-19T14:32:42.038Z,46.77
2018-08-19T14:35:10.921Z,46.92
2018-08-19T14:37:39.812Z,47.08
2018-08-19T14:40:19.133Z,46.76
2018-08-19T14:42:47.926Z,47.51
2018-08-19T14:45:16.847Z,47.61
2018-08-19T14:47:45.692Z,47.65
2018-08-19T14:50:18.813Z,48.01
2018-08-19T14:52:47.685Z,47.80
2018-08-19T14:55:16.520Z,47.94
2018-08-19T14:57:45.380Z,48.24
2018-08-19T15:00:15.690Z,48.04
2018-08-19T15:02:44.592Z,47.97
2018-08-19T15:05:20.769Z,47.95
2018-08-19T15:07:49.885Z,48.42
2018-08-19T15:10:23.768Z,48.95
2018-08-19T15:12:53.093Z,48.42
2018-08-19T15:15:21.934Z,48.30
2018-08-19T15:17:59.785Z,48.75
2018-08-19T15:20:36.025Z,48.63
2018-08-19T15:23:18.621Z,49.04
2018-08-19T15:25:47.440Z,48.66
2018-08-19T15:28:17.034Z,48.22
2018-08-19T15:30:45.887Z,48.15
2018-08-19T15:33:15.570Z,48.78
2018-08-19T15:35:44.473Z,49.67
2018-08-19T15:38:13.312Z,49.72
2018-08-19T15:40:47.556Z,49.53
2018-08-19T15:43:16.360Z,49.44
2018-08-19T15:45:45.618Z,48.43
2018-08-19T15:48:14.477Z,48.10
2018-08-19T15:50:43.338Z,49.34
2018-08-19T15:53:12.187Z,49.09
2018-08-19T15:55:41.034Z,50.00
2018-08-19T15:58:09.904Z,49.92
2018-08-19T16:00:40.531Z,49.59
2018-08-19T16:03:10.495Z,49.29
2018-08-19T16:05:39.367Z,49.62
2018-08-19T16:08:08.257Z,48.86
2018-08-19T16:10:37.163Z,48.48
2018-08-19T16:13:08.204Z,48.95
2018-08-19T16:15:37.078Z,49.07
2018-08-19T16:18:05.970Z,49.31
2018-08-19T16:20:34.830Z,50.04
2018-08-19T16:23:03.680Z,50.50
2018-08-19T16:25:32.547Z,50.14
2018-08-19T16:28:01.413Z,50.47
2018-08-19T16:30:30.267Z,50.52
2018-08-19T16:32:59.131Z,50.78
2018-08-19T16:35:27.996Z,50.18
2018-08-19T16:37:56.882Z,50.29
2018-08-19T16:40:25.772Z,50.73
2018-08-19T16:42:54.636Z,50.69
2018-08-19T16:45:23.508Z,50.68
2018-08-19T16:47:52.374Z,51.31
2018-08-19T16:50:21.375Z,51.23
2018-08-19T16:52:50.151Z,51.39
2018-08-19T16:55:19.030Z,51.04
2018-08-19T16:57:47.923Z,50.71
2018-08-19T17:00:16.801Z,51.19
2018-08-19T17:02:45.747Z,51.47
2018-08-19T17:05:31.857Z,51.97
2018-08-19T17:08:00.703Z,52.10
2018-08-19T17:10:30.152Z,52.51
2018-08-19T17:12:59.290Z,52.68
2018-08-19T17:15:28.462Z,52.55
2018-08-19T17:17:57.310Z,52.69
2018-08-19T17:20:26.172Z,53.04
2018-08-19T17:22:55.057Z,52.79
2018-08-19T17:25:23.939Z,53.46
2018-08-19T17:27:52.811Z,53.96
2018-08-19T17:30:21.676Z,54.04
2018-08-19T17:32:59.317Z,54.10
2018-08-19T17:35:28.132Z,54.53
2018-08-19T17:37:56.998Z,54.35
2018-08-19T17:40:25.890Z,54.33
2018-08-19T17:42:54.943Z,54.24
2018-08-19T17:45:23.840Z,53.55
2018-08-19T17:47:52.911Z,54.49
2018-08-19T17:50:25.343Z,54.73
2018-08-19T17:52:55.743Z,53.71
2018-08-19T17:55:25.264Z,54.07
2018-08-19T17:57:54.833Z,54.49
2018-08-19T18:00:23.947Z,54.59
2018-08-19T18:02:53.126Z,54.59
2018-08-19T18:05:22.148Z,54.75
2018-08-19T18:07:52.473Z,55.24
2018-08-19T18:10:21.310Z,55.40
2018-08-19T18:12:50.537Z,55.70
2018-08-19T18:15:19.421Z,55.79
2018-08-19T18:18:07.612Z,55.93
2018-08-19T18:20:40.805Z,55.82
2018-08-19T18:23:29.031Z,55.23
2018-08-19T18:25:57.917Z,56.23
2018-08-19T18:28:28.147Z,55.94
2018-08-19T18:31:22.664Z,56.44
2018-08-19T18:33:57.775Z,56.37
2018-08-19T18:36:27.778Z,56.62
2018-08-19T18:38:57.109Z,56.92
2018-08-19T18:41:31.408Z,57.01
2018-08-19T18:44:04.283Z,57.42
2018-08-19T18:46:33.578Z,57.88
2018-08-19T18:49:27.474Z,57.94
2018-08-19T18:51:59.071Z,58.28
2018-08-19T18:54:31.200Z,58.42
2018-08-19T18:57:01.616Z,57.92
2018-08-19T18:59:30.550Z,58.41
2018-08-19T19:02:01.026Z,58.65
2018-08-19T19:04:29.900Z,59.02
2018-08-19T19:06:58.748Z,60.08
2018-08-19T19:09:48.984Z,60.21
2018-08-19T19:12:20.772Z,60.78
2018-08-19T19:14:49.658Z,61.13
2018-08-19T19:17:19.523Z,61.69
2018-08-19T19:19:51.436Z,62.16
2018-08-19T19:22:20.326Z,62.50
2018-08-19T19:24:52.091Z,62.83
2018-08-19T19:27:20.977Z,63.13
2018-08-19T19:30:04.982Z,63.14
2018-08-19T19:32:33.842Z,63.13
2018-08-19T19:35:20.868Z,64.01
2018-08-19T19:37:49.763Z,64.22
2018-08-19T19:40:20.948Z,63.91
2018-08-19T19:42:50.127Z,64.30
2018-08-19T19:45:18.983Z,64.46
2018-08-19T19:47:47.946Z,64.32
2018-08-19T19:50:16.811Z,64.20
2018-08-19T19:53:04.784Z,64.34
2018-08-19T19:55:33.753Z,64.22
2018-08-19T19:58:02.613Z,64.27
2018-08-19T20:00:54.040Z,64.43
2018-08-19T20:03:23.757Z,64.90
2018-08-19T20:05:52.673Z,64.80
2018-08-19T20:08:26.290Z,64.49
2018-08-19T20:10:55.153Z,65.70
2018-08-19T20:13:24.020Z,65.68
2018-08-19T20:15:52.876Z,65.77
2018-08-19T20:18:21.709Z,65.99
2018-08-19T20:20:50.576Z,65.67
2018-08-19T20:23:26.148Z,65.78
2018-08-19T20:25:55.677Z,65.57
2018-08-19T20:28:24.501Z,65.60
2018-08-19T20:30:53.746Z,65.70
2018-08-19T20:33:27.589Z,65.61
2018-08-19T20:35:56.576Z,65.30
2018-08-19T20:38:26.055Z,65.08
2018-08-19T20:40:55.787Z,65.71
2018-08-19T20:43:25.266Z,65.83
2018-08-19T20:45:54.149Z,65.35
2018-08-19T20:48:23.367Z,65.19
2018-08-19T20:50:52.231Z,65.53
2018-08-19T20:53:21.123Z,65.30
2018-08-19T20:55:50.010Z,65.17
2018-08-19T20:58:19.313Z,65.19
2018-08-19T21:00:48.196Z,64.96
2018-08-19T21:03:17.063Z,64.96
2018-08-19T21:05:45.942Z,65.06
2018-08-19T21:08:18.478Z,64.77
2018-08-19T21:10:48.188Z,65.02
2018-08-19T21:13:18.187Z,64.82
2018-08-19T21:15:51.501Z,64.81
2018-08-19T21:18:20.340Z,64.91
2018-08-19T21:20:49.236Z,65.13
2018-08-19T21:23:18.122Z,65.17
2018-08-19T21:26:00.194Z,64.06
2018-08-19T21:28:29.012Z,65.00
2018-08-19T21:30:57.921Z,65.06
2018-08-19T21:33:26.838Z,64.29
2018-08-19T21:35:56.581Z,65.14
2018-08-19T21:38:25.497Z,65.25
2018-08-19T21:40:56.031Z,65.47
2018-08-19T21:43:30.137Z,64.32
2018-08-19T21:45:59.607Z,65.33
2018-08-19T21:48:28.456Z,65.60
2018-08-19T21:50:57.333Z,65.79
2018-08-19T21:53:26.210Z,66.05
2018-08-19T21:55:55.043Z,66.33
2018-08-19T21:58:23.960Z,66.66
2018-08-19T22:01:03.690Z,66.37
2018-08-19T22:03:51.029Z,67.29
2018-08-19T22:06:19.883Z,67.23
2018-08-19T22:08:48.749Z,67.54
2018-08-19T22:11:17.651Z,67.77
2018-08-19T22:13:46.522Z,67.94
2018-08-19T22:16:15.412Z,68.07
2018-08-19T22:18:44.290Z,67.46
2018-08-19T22:21:20.249Z,67.97
2018-08-19T22:23:50.345Z,68.72
2018-08-19T22:26:20.146Z,68.64
2018-08-19T22:29:15.298Z,68.70
2018-08-19T22:31:44.117Z,68.57
2018-08-19T22:34:12.975Z,68.91
2018-08-19T22:36:41.862Z,68.78
2018-08-19T22:39:10.914Z,69.06
2018-08-19T22:41:39.759Z,69.15
2018-08-19T22:44:08.625Z,69.15
2018-08-19T22:46:37.455Z,69.34
2018-08-19T22:49:06.304Z,69.59
2018-08-19T22:51:35.156Z,69.54
2018-08-19T22:54:04.005Z,69.42
2018-08-19T22:56:32.851Z,69.75
2018-08-19T22:59:01.703Z,69.74
2018-08-19T23:01:49.208Z,69.78
2018-08-19T23:04:18.089Z,68.95
2018-08-19T23:06:46.948Z,68.58
2018-08-19T23:09:15.804Z,68.10
2018-08-19T23:11:48.246Z,69.22
2018-08-19T23:14:53.475Z,69.48
2018-08-19T23:17:22.355Z,69.91
2018-08-19T23:19:51.948Z,69.92
2018-08-19T23:22:20.828Z,69.88
2018-08-19T23:24:49.668Z,69.97
2018-08-19T23:27:18.557Z,70.27
2018-08-19T23:29:47.461Z,69.39
2018-08-19T23:32:16.329Z,69.03
2018-08-19T23:34:45.216Z,70.21
2018-08-19T23:37:14.123Z,70.48
2018-08-19T23:39:42.984Z,70.36
2018-08-19T23:42:11.844Z,70.57
2018-08-19T23:44:40.693Z,70.93
2018-08-19T23:47:09.573Z,70.89
2018-08-19T23:49:38.420Z,71.09
2018-08-19T23:52:07.304Z,71.50
2018-08-19T23:54:36.158Z,71.33
2018-08-19T23:57:05.052Z,71.77
2018-08-19T23:59:37.172Z,71.87
